createdAt,value
2019-05-17T05:18:25.019Z,60.75
2019-05-17T05:20:54.457Z,64.53
2019-05-17T05:23:24.220Z,62.50
2019-05-17T05:28:22.622Z,65.35
2019-05-17T05:30:52.764Z,61.92
2019-05-17T05:33:22.395Z,68.42
2019-05-17T05:35:51.945Z,62.50
2019-05-17T05:38:21.750Z,57.43
2019-05-17T05:43:22.551Z,46.13
2019-05-17T05:45:53.614Z,55.60
2019-05-17T05:48:23.215Z,58.87
2019-05-17T05:50:52.690Z,62.93
2019-05-17T05:53:22.204Z,55.75
2019-05-17T05:55:51.913Z,56.85
2019-05-17T05:58:24.029Z,51.92
2019-05-17T06:00:53.268Z,46.20
2019-05-17T06:03:23.026Z,45.35
2019-05-17T06:05:52.660Z,45.88
2019-05-17T06:08:22.781Z,40.92
2019-05-17T06:10:53.074Z,49.27
2019-05-17T06:13:22.937Z,48.17
2019-05-17T06:15:52.414Z,46.53
2019-05-17T06:18:22.729Z,43.45
2019-05-17T06:20:52.569Z,43.65
2019-05-17T06:23:23.417Z,43.13
2019-05-17T06:25:53.158Z,43.23
2019-05-17T06:28:22.619Z,41.35
2019-05-17T06:30:52.295Z,40.38
2019-05-17T06:33:30.631Z,41.53
2019-05-17T06:35:53.014Z,44.63
2019-05-17T06:38:22.608Z,42.53
2019-05-17T06:40:52.452Z,38.65
2019-05-17T06:43:21.982Z,43.10
2019-05-17T06:45:52.198Z,41.77
2019-05-17T06:48:22.591Z,40.55
2019-05-17T06:50:52.251Z,41.13
2019-05-17T06:53:22.059Z,35.70
2019-05-17T06:58:22.350Z,33.23
2019-05-17T07:03:20.434Z,31.87
2019-05-17T07:05:54.395Z,32.23
2019-05-17T07:08:23.845Z,29.98
2019-05-17T07:10:53.319Z,26.42
2019-05-17T07:13:22.777Z,30.55
2019-05-17T07:15:52.254Z,32.88
2019-05-17T07:18:21.713Z,33.18
2019-05-17T07:20:51.193Z,31.45
2019-05-17T07:23:20.652Z,33.33
2019-05-17T07:25:50.487Z,27.40
2019-05-17T07:28:21.054Z,24.10
2019-05-17T07:30:50.544Z,26.97
2019-05-17T07:33:20.134Z,28.67
2019-05-17T07:35:50.215Z,26.95
2019-05-17T07:38:20.082Z,27.45
2019-05-17T07:40:50.286Z,27.32
2019-05-17T07:43:20.801Z,23.02
2019-05-17T07:45:50.541Z,21.68
2019-05-17T07:48:20.193Z,29.40
2019-05-17T07:50:50.373Z,25.70
2019-05-17T07:53:21.209Z,27.62
2019-05-17T07:55:50.762Z,26.30
2019-05-17T07:58:21.368Z,25.48
2019-05-17T08:00:52.122Z,23.32
2019-05-17T08:03:24.723Z,24.07
2019-05-17T08:05:52.683Z,25.82
2019-05-17T08:08:22.167Z,26.75
2019-05-17T08:10:51.618Z,25.65
2019-05-17T08:13:30.048Z,23.05
2019-05-17T08:15:52.165Z,24.12
2019-05-17T08:18:21.662Z,24.77
2019-05-17T08:20:51.113Z,27.22
2019-05-17T08:23:20.627Z,25.05
2019-05-17T08:25:55.619Z,25.02
2019-05-17T08:28:21.695Z,24.95
2019-05-17T08:30:51.317Z,22.50
2019-05-17T08:33:21.765Z,22.02
2019-05-17T08:35:51.221Z,22.30
2019-05-17T08:38:20.770Z,22.50
2019-05-17T08:40:51.308Z,23.42
2019-05-17T08:43:21.455Z,21.25
2019-05-17T08:45:50.934Z,21.42
2019-05-17T08:48:20.741Z,23.22
2019-05-17T08:50:50.296Z,22.37
2019-05-17T08:53:20.011Z,21.90
2019-05-17T08:55:50.074Z,20.70
2019-05-17T08:58:21.653Z,19.90
2019-05-17T09:00:50.797Z,20.10
2019-05-17T09:03:20.278Z,20.27
2019-05-17T09:05:52.632Z,21.52
2019-05-17T09:08:20.843Z,21.07
2019-05-17T09:10:50.674Z,20.45
2019-05-17T09:15:49.542Z,23.70
2019-05-17T09:18:20.627Z,18.62
2019-05-17T09:20:50.257Z,19.15
2019-05-17T09:23:19.918Z,19.85
2019-05-17T09:25:50.182Z,17.82
2019-05-17T09:28:20.532Z,19.35
2019-05-17T09:30:50.783Z,17.65
2019-05-17T09:33:20.395Z,18.15
2019-05-17T09:35:50.160Z,17.23
2019-05-17T09:38:20.332Z,16.57
2019-05-17T09:40:50.448Z,17.35
2019-05-17T09:43:20.691Z,19.30
2019-05-17T09:45:50.874Z,15.48
2019-05-17T09:48:20.617Z,15.72
2019-05-17T09:50:50.540Z,18.00
2019-05-17T09:53:20.443Z,17.23
2019-05-17T09:55:49.990Z,15.85
2019-05-17T09:58:21.668Z,14.60
2019-05-17T10:00:50.909Z,13.53
2019-05-17T10:03:23.869Z,16.77
2019-05-17T10:05:51.485Z,16.42
2019-05-17T10:08:20.965Z,17.32
2019-05-17T10:11:04.227Z,17.60
2019-05-17T10:13:21.666Z,15.90
2019-05-17T10:15:51.111Z,15.72
2019-05-17T10:18:20.585Z,15.95
2019-05-17T10:20:50.625Z,16.20
2019-05-17T10:23:20.325Z,17.30
2019-05-17T10:25:49.781Z,13.45
2019-05-17T10:28:20.564Z,17.55
2019-05-17T10:30:52.187Z,13.93
2019-05-17T10:33:21.311Z,13.18
2019-05-17T10:35:50.829Z,13.65
2019-05-17T10:38:20.307Z,15.68
2019-05-17T10:40:50.155Z,16.35
2019-05-17T10:45:49.948Z,48.58
2019-05-17T10:48:21.242Z,20.57
2019-05-17T10:50:50.596Z,66.20
2019-05-17T10:53:20.543Z,14.15
2019-05-17T10:55:50.124Z,13.95
2019-05-17T10:58:21.274Z,14.30
2019-05-17T11:00:51.822Z,14.20
2019-05-17T11:03:21.393Z,14.83
2019-05-17T11:05:50.959Z,14.43
2019-05-17T11:08:20.414Z,14.40
2019-05-17T11:10:50.288Z,13.85
2019-05-17T11:13:20.925Z,14.18
2019-05-17T11:15:51.580Z,14.90
2019-05-17T11:18:21.033Z,15.28
2019-05-17T11:20:50.517Z,12.35
2019-05-17T11:23:19.980Z,14.00
2019-05-17T11:25:49.458Z,15.68
2019-05-17T11:32:04.618Z,14.93
2019-05-17T11:34:34.097Z,15.50
2019-05-17T11:37:03.549Z,14.28
2019-05-17T11:39:33.097Z,14.43
2019-05-17T11:42:02.553Z,13.60
2019-05-17T11:44:32.010Z,13.83
2019-05-17T11:47:01.498Z,14.40
2019-05-17T11:49:31.039Z,13.68
2019-05-17T11:52:00.585Z,12.50
2019-05-17T11:54:30.039Z,13.43
2019-05-17T11:56:59.521Z,12.90
2019-05-17T11:59:28.970Z,14.25
2019-05-17T12:01:58.514Z,14.05
2019-05-17T12:04:27.917Z,14.53
2019-05-17T12:06:57.457Z,13.35
2019-05-17T12:09:37.046Z,14.68
2019-05-17T12:11:58.947Z,14.35
2019-05-17T12:14:28.474Z,14.68
2019-05-17T12:16:58.021Z,15.20
2019-05-17T12:19:37.195Z,14.60
2019-05-17T12:22:06.961Z,13.75
2019-05-17T12:24:36.492Z,11.85
2019-05-17T12:27:06.034Z,11.80
2019-05-17T12:29:35.494Z,10.65
2019-05-17T12:32:05.114Z,11.00
2019-05-17T12:34:34.586Z,11.50
2019-05-17T12:37:04.616Z,10.45
2019-05-17T12:39:34.200Z,9.20
2019-05-17T12:42:04.066Z,9.45
2019-05-17T12:44:36.918Z,11.28
2019-05-17T12:47:04.837Z,8.05
2019-05-17T12:49:34.293Z,10.58
2019-05-17T12:52:03.828Z,6.92
2019-05-17T12:54:33.286Z,8.33
2019-05-17T12:57:04.798Z,8.18
2019-05-17T12:59:33.899Z,9.33
2019-05-17T13:02:03.780Z,8.03
2019-05-17T13:07:01.864Z,6.80
2019-05-17T13:09:31.323Z,6.33
2019-05-17T13:12:00.815Z,8.60
2019-05-17T13:14:39.483Z,10.65
2019-05-17T13:17:10.117Z,6.35
2019-05-17T13:19:39.631Z,6.40
2019-05-17T13:22:09.367Z,6.30
2019-05-17T13:24:38.991Z,6.08
2019-05-17T13:27:39.636Z,5.75
2019-05-17T13:30:09.954Z,7.03
2019-05-17T13:32:39.739Z,5.95
2019-05-17T13:35:09.941Z,6.87
2019-05-17T13:37:39.508Z,5.40
2019-05-17T13:40:09.820Z,5.92
2019-05-17T13:42:39.322Z,5.60
2019-05-17T13:45:09.762Z,6.62
2019-05-17T13:47:39.333Z,5.28
2019-05-17T13:50:09.438Z,6.05
2019-05-17T13:52:38.948Z,4.80
2019-05-17T13:55:09.167Z,6.75
2019-05-17T13:57:38.663Z,6.33
2019-05-17T14:00:09.768Z,5.58
2019-05-17T14:02:39.332Z,6.17
2019-05-17T14:05:09.910Z,4.85
2019-05-17T14:07:39.423Z,5.40
2019-05-17T14:10:26.370Z,4.55
2019-05-17T14:12:41.282Z,4.83
2019-05-17T14:15:11.197Z,4.60
2019-05-17T14:20:10.956Z,4.97
2019-05-17T14:25:09.698Z,4.20
2019-05-17T14:27:39.269Z,4.95
2019-05-17T14:30:10.381Z,5.28
2019-05-17T14:32:39.875Z,4.30
2019-05-17T14:35:10.158Z,5.03
2019-05-17T14:37:39.887Z,5.58
2019-05-17T14:40:09.623Z,5.95
2019-05-17T14:42:43.099Z,5.22
2019-05-17T14:45:12.921Z,5.20
2019-05-17T14:50:11.387Z,5.00
2019-05-17T14:55:09.768Z,3.70
2019-05-17T14:57:42.807Z,4.70
2019-05-17T15:00:10.948Z,4.25
2019-05-17T15:02:40.457Z,4.78
2019-05-17T15:05:10.411Z,4.05
2019-05-17T15:10:08.948Z,4.03
2019-05-17T15:12:39.528Z,5.72
2019-05-17T15:15:09.453Z,3.75
2019-05-17T15:20:19.772Z,3.70
2019-05-17T15:22:49.427Z,3.52
2019-05-17T15:25:19.087Z,3.77
2019-05-17T15:27:48.668Z,3.80
2019-05-17T15:30:18.437Z,3.50
2019-05-17T15:32:48.029Z,3.30
2019-05-17T15:35:17.506Z,4.97
2019-05-17T15:37:47.185Z,5.15
2019-05-17T15:40:17.524Z,3.87
2019-05-17T15:42:47.108Z,3.60
2019-05-17T15:45:17.684Z,4.25
2019-05-17T15:47:47.254Z,3.10
2019-05-17T15:50:17.074Z,3.05
2019-05-17T15:52:46.596Z,4.97
2019-05-17T15:55:16.206Z,3.45
2019-05-17T15:57:45.728Z,3.47
2019-05-17T16:00:15.668Z,7.33
2019-05-17T16:05:15.481Z,3.20
2019-05-17T16:07:45.107Z,3.58
2019-05-17T16:10:15.056Z,3.40
2019-05-17T16:15:15.138Z,3.00
2019-05-17T16:17:44.617Z,7.17
2019-05-17T16:20:16.943Z,3.30
2019-05-17T16:22:45.770Z,3.02
2019-05-17T16:25:15.389Z,3.50
2019-05-17T16:27:44.846Z,3.85
2019-05-17T16:30:15.078Z,3.10
2019-05-17T16:32:44.781Z,3.12
2019-05-17T16:35:14.491Z,3.25
2019-05-17T16:37:44.043Z,3.22
2019-05-17T16:40:13.598Z,6.28
2019-05-17T16:42:43.480Z,3.20
2019-05-17T16:47:43.208Z,2.95
2019-05-17T16:50:13.145Z,2.95
2019-05-17T16:55:14.886Z,3.15
2019-05-17T16:57:44.429Z,3.77
2019-05-17T17:00:32.020Z,3.08
2019-05-17T17:03:01.595Z,5.47
2019-05-17T17:05:31.196Z,3.75
2019-05-17T17:08:00.654Z,2.98
2019-05-17T17:10:30.139Z,5.17
2019-05-17T17:12:59.678Z,3.30
2019-05-17T17:15:29.443Z,8.05
2019-05-17T17:17:58.915Z,9.90
2019-05-17T17:20:28.568Z,4.30
2019-05-17T17:22:59.294Z,4.97
2019-05-17T17:25:28.951Z,4.70
2019-05-17T17:27:58.574Z,6.17
2019-05-17T17:30:28.145Z,10.25
2019-05-17T17:32:57.810Z,11.45
2019-05-17T17:35:27.370Z,4.50
2019-05-17T17:37:57.018Z,4.92
2019-05-17T17:40:26.830Z,3.62
2019-05-17T17:42:56.478Z,3.22
2019-05-17T17:45:27.654Z,3.65
2019-05-17T17:47:58.099Z,4.03
2019-05-17T17:50:27.686Z,3.70
2019-05-17T17:52:57.418Z,2.87
2019-05-17T17:55:26.926Z,3.17
2019-05-17T17:57:56.471Z,4.55
2019-05-17T18:00:26.113Z,2.75
2019-05-17T18:02:55.574Z,2.70
2019-05-17T18:05:25.368Z,2.70
2019-05-17T18:07:54.839Z,2.65
2019-05-17T18:10:30.196Z,2.50
2019-05-17T18:13:00.847Z,2.83
2019-05-17T18:15:36.311Z,2.70
2019-05-17T18:18:05.931Z,7.33
2019-05-17T18:20:35.607Z,2.20
2019-05-17T18:23:05.511Z,2.45
2019-05-17T18:25:35.351Z,3.30
2019-05-17T18:28:05.075Z,4.17
2019-05-17T18:30:34.916Z,3.30
2019-05-17T18:33:05.011Z,3.40
2019-05-17T18:40:34.712Z,3.60
2019-05-17T18:43:07.317Z,4.35
2019-05-17T18:45:37.041Z,5.10
2019-05-17T18:48:06.745Z,4.08
2019-05-17T18:50:36.602Z,6.37
2019-05-17T18:53:12.965Z,3.92
2019-05-17T18:55:37.595Z,4.58
2019-05-17T18:58:07.250Z,5.33
2019-05-17T19:00:36.835Z,4.22
2019-05-17T19:03:06.382Z,4.90
2019-05-17T19:05:37.864Z,6.47
2019-05-17T19:08:08.807Z,4.37
2019-05-17T19:10:38.390Z,4.83
2019-05-17T19:13:23.054Z,4.85
2019-05-17T19:15:52.638Z,6.20
2019-05-17T19:18:22.114Z,5.78
2019-05-17T19:20:51.706Z,5.90
2019-05-17T19:23:21.299Z,5.72
2019-05-17T19:25:51.091Z,9.13
2019-05-17T19:28:20.553Z,5.95
2019-05-17T19:30:50.051Z,5.37
2019-05-17T19:33:19.894Z,7.30
2019-05-17T19:35:49.391Z,6.12
2019-05-17T19:38:18.875Z,7.12
2019-05-17T19:40:48.454Z,9.05
2019-05-17T19:43:17.930Z,8.45
2019-05-17T19:45:47.435Z,6.12
2019-05-17T19:48:19.672Z,7.10
2019-05-17T19:50:48.120Z,5.80
2019-05-17T19:53:17.729Z,5.80
2019-05-17T19:55:47.327Z,7.35
2019-05-17T19:58:16.861Z,5.90
2019-05-17T20:00:46.631Z,7.92
2019-05-17T20:03:16.191Z,7.55
2019-05-17T20:05:45.690Z,5.45
2019-05-17T20:08:15.261Z,5.80
2019-05-17T20:10:44.852Z,9.90
2019-05-17T20:13:14.385Z,7.10
2019-05-17T20:15:43.923Z,6.80
2019-05-17T20:18:13.437Z,6.35
2019-05-17T20:20:42.977Z,7.37
2019-05-17T20:23:12.504Z,8.15
2019-05-17T20:25:41.974Z,6.33
2019-05-17T20:28:12.444Z,7.90
2019-05-17T20:30:42.012Z,6.78
2019-05-17T20:33:11.788Z,7.85
2019-05-17T20:35:41.278Z,7.42
2019-05-17T20:38:17.795Z,8.13
2019-05-17T20:40:47.259Z,8.53
2019-05-17T20:43:16.754Z,10.53
2019-05-17T20:45:46.246Z,8.40
2019-05-17T20:48:16.995Z,8.20
2019-05-17T20:50:46.455Z,8.23
2019-05-17T20:53:18.916Z,8.18
2019-05-17T20:55:47.103Z,7.97
2019-05-17T20:58:16.602Z,7.78
2019-05-17T21:00:47.048Z,7.75
2019-05-17T21:03:16.556Z,10.82
2019-05-17T21:05:46.043Z,8.68
2019-05-17T21:08:15.527Z,8.85
2019-05-17T21:10:45.016Z,8.98
2019-05-17T21:13:14.526Z,8.75
2019-05-17T21:15:47.759Z,7.67
2019-05-17T21:18:15.123Z,8.45
2019-05-17T21:20:44.610Z,8.30
2019-05-17T21:23:14.212Z,7.87
2019-05-17T21:25:44.371Z,8.05
2019-05-17T21:28:13.882Z,8.65
2019-05-17T21:30:43.387Z,8.70
2019-05-17T21:33:12.906Z,9.00
2019-05-17T21:35:42.399Z,8.48
2019-05-17T21:38:12.876Z,7.95
2019-05-17T21:40:43.174Z,10.00
2019-05-17T21:43:13.380Z,9.23
2019-05-17T21:45:43.679Z,8.23
2019-05-17T21:48:13.965Z,8.63
2019-05-17T21:50:44.203Z,8.53
2019-05-17T21:53:15.424Z,8.88
2019-05-17T21:55:45.026Z,8.20
2019-05-17T21:58:21.724Z,10.13
2019-05-17T22:01:03.673Z,8.03
2019-05-17T22:03:33.257Z,9.18
2019-05-17T22:06:03.692Z,7.70
2019-05-17T22:08:33.203Z,8.40
2019-05-17T22:11:02.713Z,9.35
2019-05-17T22:13:32.296Z,9.80
2019-05-17T22:16:02.039Z,10.13
2019-05-17T22:18:31.532Z,10.90
2019-05-17T22:21:01.022Z,9.93
2019-05-17T22:23:30.552Z,8.25
2019-05-17T22:26:00.040Z,9.00
2019-05-17T22:28:29.530Z,8.25
2019-05-17T22:30:59.005Z,9.33
2019-05-17T22:33:28.498Z,9.60
2019-05-17T22:35:57.979Z,8.40
2019-05-17T22:38:27.549Z,11.75
2019-05-17T22:40:58.108Z,9.65
2019-05-17T22:43:27.605Z,9.33
2019-05-17T22:46:02.882Z,9.65
2019-05-17T22:48:32.372Z,9.53
2019-05-17T22:51:01.864Z,11.55
2019-05-17T22:53:31.342Z,9.23
2019-05-17T22:56:00.814Z,9.33
2019-05-17T22:58:30.320Z,8.40
2019-05-17T23:00:59.779Z,10.05
2019-05-17T23:03:29.354Z,9.25
2019-05-17T23:05:58.822Z,8.83
2019-05-17T23:08:28.331Z,10.88
2019-05-17T23:10:57.808Z,10.70
2019-05-17T23:13:27.322Z,11.28
2019-05-17T23:16:04.205Z,10.75
2019-05-17T23:18:34.745Z,10.18
2019-05-17T23:21:04.673Z,10.10
2019-05-17T23:23:34.159Z,9.75
2019-05-17T23:26:03.800Z,9.28
2019-05-17T23:28:33.334Z,10.10
2019-05-17T23:31:02.809Z,10.23
2019-05-17T23:33:32.261Z,11.03
2019-05-17T23:36:01.738Z,10.32
2019-05-17T23:38:31.193Z,11.57
2019-05-17T23:41:00.666Z,10.90
2019-05-17T23:43:30.114Z,12.58
2019-05-17T23:45:59.581Z,11.25
2019-05-17T23:48:29.029Z,11.88
2019-05-17T23:50:58.501Z,10.38
2019-05-17T23:53:27.942Z,11.03
2019-05-17T23:55:57.425Z,9.83
2019-05-17T23:58:26.850Z,9.85
